sensor_id;sensor_type;location;lat;lon;timestamp;P1;durP1;ratioP1;P2;durP2;ratioP2
13279;SDS011;6708;49.814;8.652;2022-12-07T00:01:22;5.47;;;4.97;;
13279;SDS011;6708;49.814;8.652;2022-12-07T00:03:53;5.37;;;4.90;;
13279;SDS011;6708;49.814;8.652;2022-12-07T00:06:26;5.43;;;5.03;;
13279;SDS011;6708;49.814;8.652;2022-12-07T00:08:55;5.17;;;4.77;;
13279;SDS011;6708;49.814;8.652;2022-12-07T00:11:26;6.33;;;5.80;;
13279;SDS011;6708;49.814;8.652;2022-12-07T00:13:56;5.60;;;5.20;;
13279;SDS011;6708;49.814;8.652;2022-12-07T00:16:26;5.73;;;5.30;;
13279;SDS011;6708;49.814;8.652;2022-12-07T00:18:55;6.30;;;5.87;;
13279;SDS011;6708;49.814;8.652;2022-12-07T00:21:25;6.83;;;6.33;;
13279;SDS011;6708;49.814;8.652;2022-12-07T00:23:58;7.30;;;6.70;;
13279;SDS011;6708;49.814;8.652;2022-12-07T00:26:30;7.60;;;6.90;;
13279;SDS011;6708;49.814;8.652;2022-12-07T00:29:02;6.77;;;6.27;;
13279;SDS011;6708;49.814;8.652;2022-12-07T00:31:33;6.60;;;6.00;;
13279;SDS011;6708;49.814;8.652;2022-12-07T00:34:04;6.40;;;5.80;;
13279;SDS011;6708;49.814;8.652;2022-12-07T00:36:34;6.70;;;6.13;;
13279;SDS011;6708;49.814;8.652;2022-12-07T00:39:04;7.57;;;6.87;;
13279;SDS011;6708;49.814;8.652;2022-12-07T00:41:36;6.93;;;6.30;;
13279;SDS011;6708;49.814;8.652;2022-12-07T00:44:05;6.60;;;6.10;;
13279;SDS011;6708;49.814;8.652;2022-12-07T00:46:37;7.23;;;6.63;;
13279;SDS011;6708;49.814;8.652;2022-12-07T00:49:05;7.13;;;6.43;;
13279;SDS011;6708;49.814;8.652;2022-12-07T00:51:34;7.20;;;6.43;;
13279;SDS011;6708;49.814;8.652;2022-12-07T00:54:05;6.10;;;5.60;;
13279;SDS011;6708;49.814;8.652;2022-12-07T00:56:37;6.57;;;5.87;;
13279;SDS011;6708;49.814;8.652;2022-12-07T00:59:05;7.93;;;6.60;;
13279;SDS011;6708;49.814;8.652;2022-12-07T01:01:35;5.77;;;5.33;;
13279;SDS011;6708;49.814;8.652;2022-12-07T01:04:04;6.10;;;5.50;;
13279;SDS011;6708;49.814;8.652;2022-12-07T01:06:35;7.03;;;6.33;;
13279;SDS011;6708;49.814;8.652;2022-12-07T01:09:05;6.03;;;5.63;;
13279;SDS011;6708;49.814;8.652;2022-12-07T01:11:37;6.50;;;6.00;;
13279;SDS011;6708;49.814;8.652;2022-12-07T01:14:05;6.03;;;5.60;;
13279;SDS011;6708;49.814;8.652;2022-12-07T01:16:34;7.17;;;6.60;;
13279;SDS011;6708;49.814;8.652;2022-12-07T01:19:03;6.93;;;6.23;;
13279;SDS011;6708;49.814;8.652;2022-12-07T01:21:33;6.53;;;5.97;;
13279;SDS011;6708;49.814;8.652;2022-12-07T01:24:04;8.27;;;6.27;;
13279;SDS011;6708;49.814;8.652;2022-12-07T01:26:39;6.63;;;6.13;;
13279;SDS011;6708;49.814;8.652;2022-12-07T01:29:08;6.60;;;6.10;;
13279;SDS011;6708;49.814;8.652;2022-12-07T01:31:36;6.87;;;6.27;;
13279;SDS011;6708;49.814;8.652;2022-12-07T01:34:05;6.60;;;6.00;;
13279;SDS011;6708;49.814;8.652;2022-12-07T01:36:39;6.90;;;6.17;;
13279;SDS011;6708;49.814;8.652;2022-12-07T01:39:08;6.73;;;6.23;;
13279;SDS011;6708;49.814;8.652;2022-12-07T01:41:40;7.10;;;6.50;;
13279;SDS011;6708;49.814;8.652;2022-12-07T01:44:12;6.80;;;6.20;;
13279;SDS011;6708;49.814;8.652;2022-12-07T01:46:44;6.77;;;6.10;;
13279;SDS011;6708;49.814;8.652;2022-12-07T01:49:16;7.10;;;6.50;;
13279;SDS011;6708;49.814;8.652;2022-12-07T01:51:50;6.77;;;6.07;;
13279;SDS011;6708;49.814;8.652;2022-12-07T01:54:20;6.60;;;6.00;;
13279;SDS011;6708;49.814;8.652;2022-12-07T01:56:53;6.00;;;5.53;;
13279;SDS011;6708;49.814;8.652;2022-12-07T01:59:23;6.47;;;5.97;;
13279;SDS011;6708;49.814;8.652;2022-12-07T02:01:53;5.80;;;5.33;;
13279;SDS011;6708;49.814;8.652;2022-12-07T02:04:23;5.97;;;5.50;;
13279;SDS011;6708;49.814;8.652;2022-12-07T02:06:52;7.00;;;6.10;;
13279;SDS011;6708;49.814;8.652;2022-12-07T02:09:22;6.00;;;5.40;;
13279;SDS011;6708;49.814;8.652;2022-12-07T02:11:53;6.23;;;5.63;;
13279;SDS011;6708;49.814;8.652;2022-12-07T02:14:22;6.63;;;6.03;;
13279;SDS011;6708;49.814;8.652;2022-12-07T02:16:56;5.60;;;5.03;;
13279;SDS011;6708;49.814;8.652;2022-12-07T02:22:46;6.67;;;6.07;;
13279;SDS011;6708;49.814;8.652;2022-12-07T02:25:42;7.00;;;5.60;;
13279;SDS011;6708;49.814;8.652;2022-12-07T02:28:33;6.33;;;5.80;;
13279;SDS011;6708;49.814;8.652;2022-12-07T02:31:08;6.03;;;5.53;;
13279;SDS011;6708;49.814;8.652;2022-12-07T02:33:40;7.37;;;6.00;;
13279;SDS011;6708;49.814;8.652;2022-12-07T02:36:12;5.63;;;5.23;;
13279;SDS011;6708;49.814;8.652;2022-12-07T02:38:45;6.70;;;5.93;;
13279;SDS011;6708;49.814;8.652;2022-12-07T02:41:18;6.13;;;5.63;;
13279;SDS011;6708;49.814;8.652;2022-12-07T02:43:50;5.90;;;5.47;;
13279;SDS011;6708;49.814;8.652;2022-12-07T02:46:24;6.10;;;5.70;;
13279;SDS011;6708;49.814;8.652;2022-12-07T02:48:55;6.07;;;5.63;;
13279;SDS011;6708;49.814;8.652;2022-12-07T02:51:30;6.13;;;5.63;;
13279;SDS011;6708;49.814;8.652;2022-12-07T02:53:59;6.50;;;6.00;;
13279;SDS011;6708;49.814;8.652;2022-12-07T02:56:29;5.93;;;5.53;;
13279;SDS011;6708;49.814;8.652;2022-12-07T02:59:06;6.63;;;5.97;;
13279;SDS011;6708;49.814;8.652;2022-12-07T03:01:45;6.43;;;5.77;;
13279;SDS011;6708;49.814;8.652;2022-12-07T03:04:24;5.87;;;5.47;;
13279;SDS011;6708;49.814;8.652;2022-12-07T03:07:05;6.33;;;5.83;;
13279;SDS011;6708;49.814;8.652;2022-12-07T03:09:37;6.37;;;5.87;;
13279;SDS011;6708;49.814;8.652;2022-12-07T03:12:12;6.13;;;5.53;;
13279;SDS011;6708;49.814;8.652;2022-12-07T03:14:47;7.20;;;6.63;;
13279;SDS011;6708;49.814;8.652;2022-12-07T03:17:27;6.67;;;6.10;;
13279;SDS011;6708;49.814;8.652;2022-12-07T03:19:58;6.73;;;6.13;;
13279;SDS011;6708;49.814;8.652;2022-12-07T03:22:30;6.57;;;6.00;;
13279;SDS011;6708;49.814;8.652;2022-12-07T03:25:03;6.73;;;5.77;;
13279;SDS011;6708;49.814;8.652;2022-12-07T03:27:35;7.87;;;5.90;;
13279;SDS011;6708;49.814;8.652;2022-12-07T03:30:07;6.40;;;5.90;;
13279;SDS011;6708;49.814;8.652;2022-12-07T03:32:40;6.10;;;5.50;;
13279;SDS011;6708;49.814;8.652;2022-12-07T03:35:14;5.70;;;5.20;;
13279;SDS011;6708;49.814;8.652;2022-12-07T03:37:45;6.10;;;5.60;;
13279;SDS011;6708;49.814;8.652;2022-12-07T03:40:17;7.03;;;6.23;;
13279;SDS011;6708;49.814;8.652;2022-12-07T03:42:50;6.13;;;5.53;;
13279;SDS011;6708;49.814;8.652;2022-12-07T03:45:19;6.70;;;6.13;;
13279;SDS011;6708;49.814;8.652;2022-12-07T03:47:54;5.93;;;5.53;;
13279;SDS011;6708;49.814;8.652;2022-12-07T03:50:32;6.13;;;5.63;;
13279;SDS011;6708;49.814;8.652;2022-12-07T03:53:05;6.20;;;5.70;;
13279;SDS011;6708;49.814;8.652;2022-12-07T03:55:39;6.47;;;5.87;;
13279;SDS011;6708;49.814;8.652;2022-12-07T03:58:11;6.43;;;5.73;;
13279;SDS011;6708;49.814;8.652;2022-12-07T04:00:43;6.37;;;5.73;;
13279;SDS011;6708;49.814;8.652;2022-12-07T04:03:15;6.43;;;5.83;;
13279;SDS011;6708;49.814;8.652;2022-12-07T04:05:43;6.43;;;5.93;;
13279;SDS011;6708;49.814;8.652;2022-12-07T04:08:14;10.90;;;6.33;;
13279;SDS011;6708;49.814;8.652;2022-12-07T04:10:46;7.10;;;6.40;;
13279;SDS011;6708;49.814;8.652;2022-12-07T04:13:15;6.97;;;6.37;;
13279;SDS011;6708;49.814;8.652;2022-12-07T04:15:43;6.13;;;5.63;;
13279;SDS011;6708;49.814;8.652;2022-12-07T04:18:15;6.73;;;6.17;;
13279;SDS011;6708;49.814;8.652;2022-12-07T04:20:47;5.80;;;5.30;;
13279;SDS011;6708;49.814;8.652;2022-12-07T04:23:16;6.17;;;5.67;;
13279;SDS011;6708;49.814;8.652;2022-12-07T04:25:44;6.63;;;6.03;;
13279;SDS011;6708;49.814;8.652;2022-12-07T04:28:17;5.93;;;5.37;;
13279;SDS011;6708;49.814;8.652;2022-12-07T04:30:46;6.03;;;5.43;;
13279;SDS011;6708;49.814;8.652;2022-12-07T04:33:17;5.30;;;4.90;;
13279;SDS011;6708;49.814;8.652;2022-12-07T04:35:47;5.50;;;5.00;;
13279;SDS011;6708;49.814;8.652;2022-12-07T04:38:17;5.73;;;5.33;;
13279;SDS011;6708;49.814;8.652;2022-12-07T04:40:46;5.67;;;5.27;;
13279;SDS011;6708;49.814;8.652;2022-12-07T04:43:15;6.20;;;5.53;;
13279;SDS011;6708;49.814;8.652;2022-12-07T04:45:45;5.37;;;4.97;;
13279;SDS011;6708;49.814;8.652;2022-12-07T04:48:20;6.27;;;5.70;;
13279;SDS011;6708;49.814;8.652;2022-12-07T04:50:48;5.90;;;5.37;;
13279;SDS011;6708;49.814;8.652;2022-12-07T04:53:17;6.17;;;5.67;;
13279;SDS011;6708;49.814;8.652;2022-12-07T04:55:46;5.50;;;4.97;;
13279;SDS011;6708;49.814;8.652;2022-12-07T04:58:15;5.77;;;5.27;;
13279;SDS011;6708;49.814;8.652;2022-12-07T05:00:43;6.60;;;5.43;;
13279;SDS011;6708;49.814;8.652;2022-12-07T05:03:12;5.63;;;5.17;;
13279;SDS011;6708;49.814;8.652;2022-12-07T05:05:43;5.30;;;4.90;;
13279;SDS011;6708;49.814;8.652;2022-12-07T05:08:11;5.73;;;5.33;;
13279;SDS011;6708;49.814;8.652;2022-12-07T05:10:41;6.30;;;5.83;;
13279;SDS011;6708;49.814;8.652;2022-12-07T05:13:10;5.43;;;5.03;;
13279;SDS011;6708;49.814;8.652;2022-12-07T05:15:40;5.43;;;5.10;;
13279;SDS011;6708;49.814;8.652;2022-12-07T05:18:09;5.40;;;4.97;;
13279;SDS011;6708;49.814;8.652;2022-12-07T05:20:37;5.40;;;5.00;;
13279;SDS011;6708;49.814;8.652;2022-12-07T05:23:09;5.97;;;5.17;;
13279;SDS011;6708;49.814;8.652;2022-12-07T05:25:40;5.50;;;5.10;;
13279;SDS011;6708;49.814;8.652;2022-12-07T05:28:09;5.83;;;5.33;;
13279;SDS011;6708;49.814;8.652;2022-12-07T05:30:38;6.50;;;5.97;;
13279;SDS011;6708;49.814;8.652;2022-12-07T05:33:07;6.30;;;5.70;;
13279;SDS011;6708;49.814;8.652;2022-12-07T05:35:35;5.47;;;5.07;;
13279;SDS011;6708;49.814;8.652;2022-12-07T05:38:05;5.53;;;5.03;;
13279;SDS011;6708;49.814;8.652;2022-12-07T05:40:37;6.53;;;5.93;;
13279;SDS011;6708;49.814;8.652;2022-12-07T05:43:05;5.30;;;4.97;;
13279;SDS011;6708;49.814;8.652;2022-12-07T05:45:37;5.50;;;5.10;;
13279;SDS011;6708;49.814;8.652;2022-12-07T05:48:05;8.80;;;5.73;;
13279;SDS011;6708;49.814;8.652;2022-12-07T05:50:34;5.83;;;5.43;;
13279;SDS011;6708;49.814;8.652;2022-12-07T05:53:03;6.33;;;5.17;;
13279;SDS011;6708;49.814;8.652;2022-12-07T05:55:31;6.13;;;5.53;;
13279;SDS011;6708;49.814;8.652;2022-12-07T05:58:02;5.93;;;5.50;;
13279;SDS011;6708;49.814;8.652;2022-12-07T06:00:44;6.40;;;5.80;;
13279;SDS011;6708;49.814;8.652;2022-12-07T06:03:13;5.97;;;5.47;;
13279;SDS011;6708;49.814;8.652;2022-12-07T06:05:42;6.37;;;5.80;;
13279;SDS011;6708;49.814;8.652;2022-12-07T06:08:12;5.90;;;5.47;;
13279;SDS011;6708;49.814;8.652;2022-12-07T06:10:40;6.40;;;5.80;;
13279;SDS011;6708;49.814;8.652;2022-12-07T06:13:11;5.40;;;5.00;;
13279;SDS011;6708;49.814;8.652;2022-12-07T06:15:39;6.47;;;5.90;;
13279;SDS011;6708;49.814;8.652;2022-12-07T06:18:08;6.37;;;5.30;;
13279;SDS011;6708;49.814;8.652;2022-12-07T06:20:38;5.17;;;4.80;;
13279;SDS011;6708;49.814;8.652;2022-12-07T06:23:06;5.93;;;5.43;;
13279;SDS011;6708;49.814;8.652;2022-12-07T06:25:35;6.43;;;5.83;;
13279;SDS011;6708;49.814;8.652;2022-12-07T06:28:04;6.20;;;5.70;;
13279;SDS011;6708;49.814;8.652;2022-12-07T06:30:35;6.13;;;5.53;;
13279;SDS011;6708;49.814;8.652;2022-12-07T06:33:05;5.63;;;5.13;;
13279;SDS011;6708;49.814;8.652;2022-12-07T06:35:33;5.63;;;5.23;;
13279;SDS011;6708;49.814;8.652;2022-12-07T06:38:02;5.50;;;5.00;;
13279;SDS011;6708;49.814;8.652;2022-12-07T06:40:30;6.20;;;5.60;;
13279;SDS011;6708;49.814;8.652;2022-12-07T06:43:00;5.70;;;5.30;;
13279;SDS011;6708;49.814;8.652;2022-12-07T06:45:29;5.97;;;5.47;;
13279;SDS011;6708;49.814;8.652;2022-12-07T06:48:01;5.60;;;5.20;;
13279;SDS011;6708;49.814;8.652;2022-12-07T06:50:32;6.30;;;5.80;;
13279;SDS011;6708;49.814;8.652;2022-12-07T06:53:01;6.07;;;5.57;;
13279;SDS011;6708;49.814;8.652;2022-12-07T06:55:30;6.90;;;5.93;;
13279;SDS011;6708;49.814;8.652;2022-12-07T06:57:59;6.10;;;5.60;;
13279;SDS011;6708;49.814;8.652;2022-12-07T07:00:27;5.90;;;5.50;;
13279;SDS011;6708;49.814;8.652;2022-12-07T07:02:56;6.10;;;5.50;;
13279;SDS011;6708;49.814;8.652;2022-12-07T07:05:28;6.03;;;5.60;;
13279;SDS011;6708;49.814;8.652;2022-12-07T07:07:58;6.60;;;6.00;;
13279;SDS011;6708;49.814;8.652;2022-12-07T07:10:26;8.33;;;6.47;;
13279;SDS011;6708;49.814;8.652;2022-12-07T07:12:55;6.77;;;6.20;;
13279;SDS011;6708;49.814;8.652;2022-12-07T07:15:24;7.57;;;6.17;;
13279;SDS011;6708;49.814;8.652;2022-12-07T07:17:52;5.97;;;5.53;;
13279;SDS011;6708;49.814;8.652;2022-12-07T07:20:22;6.37;;;5.87;;
13279;SDS011;6708;49.814;8.652;2022-12-07T07:22:56;6.53;;;5.90;;
13279;SDS011;6708;49.814;8.652;2022-12-07T07:25:25;6.10;;;5.70;;
13279;SDS011;6708;49.814;8.652;2022-12-07T07:27:53;6.00;;;5.47;;
13279;SDS011;6708;49.814;8.652;2022-12-07T07:30:22;5.83;;;5.40;;
13279;SDS011;6708;49.814;8.652;2022-12-07T07:32:50;6.40;;;5.87;;
13279;SDS011;6708;49.814;8.652;2022-12-07T07:35:19;6.50;;;6.00;;
13279;SDS011;6708;49.814;8.652;2022-12-07T07:37:47;6.60;;;6.00;;
13279;SDS011;6708;49.814;8.652;2022-12-07T07:40:19;6.10;;;5.60;;
13279;SDS011;6708;49.814;8.652;2022-12-07T07:42:48;6.43;;;5.83;;
13279;SDS011;6708;49.814;8.652;2022-12-07T07:45:17;6.07;;;5.57;;
13279;SDS011;6708;49.814;8.652;2022-12-07T07:47:46;6.63;;;6.00;;
13279;SDS011;6708;49.814;8.652;2022-12-07T07:50:15;5.70;;;5.27;;
13279;SDS011;6708;49.814;8.652;2022-12-07T07:52:46;7.37;;;6.03;;
13279;SDS011;6708;49.814;8.652;2022-12-07T07:55:15;5.77;;;5.37;;
13279;SDS011;6708;49.814;8.652;2022-12-07T07:57:46;6.07;;;5.67;;
13279;SDS011;6708;49.814;8.652;2022-12-07T08:00:15;6.80;;;6.20;;
13279;SDS011;6708;49.814;8.652;2022-12-07T08:02:47;6.10;;;5.57;;
13279;SDS011;6708;49.814;8.652;2022-12-07T08:05:18;6.50;;;5.80;;
13279;SDS011;6708;49.814;8.652;2022-12-07T08:07:47;7.10;;;6.10;;
13279;SDS011;6708;49.814;8.652;2022-12-07T08:10:19;6.33;;;5.83;;
13279;SDS011;6708;49.814;8.652;2022-12-07T08:12:50;5.83;;;5.33;;
13279;SDS011;6708;49.814;8.652;2022-12-07T08:15:31;6.30;;;5.80;;
13279;SDS011;6708;49.814;8.652;2022-12-07T08:17:59;7.37;;;6.40;;
13279;SDS011;6708;49.814;8.652;2022-12-07T08:20:32;7.07;;;6.47;;
13279;SDS011;6708;49.814;8.652;2022-12-07T08:23:01;6.27;;;5.83;;
13279;SDS011;6708;49.814;8.652;2022-12-07T08:25:32;6.93;;;6.33;;
13279;SDS011;6708;49.814;8.652;2022-12-07T08:28:04;6.73;;;6.23;;
13279;SDS011;6708;49.814;8.652;2022-12-07T08:30:32;5.83;;;5.33;;
13279;SDS011;6708;49.814;8.652;2022-12-07T08:33:04;5.90;;;5.40;;
13279;SDS011;6708;49.814;8.652;2022-12-07T08:35:33;6.90;;;6.27;;
13279;SDS011;6708;49.814;8.652;2022-12-07T08:38:02;6.90;;;6.30;;
13279;SDS011;6708;49.814;8.652;2022-12-07T08:40:32;6.10;;;5.60;;
13279;SDS011;6708;49.814;8.652;2022-12-07T08:43:01;6.97;;;6.37;;
13279;SDS011;6708;49.814;8.652;2022-12-07T08:45:32;5.93;;;5.53;;
13279;SDS011;6708;49.814;8.652;2022-12-07T08:48:01;6.10;;;5.50;;
13279;SDS011;6708;49.814;8.652;2022-12-07T08:50:32;6.80;;;6.20;;
13279;SDS011;6708;49.814;8.652;2022-12-07T08:53:03;6.90;;;6.33;;
13279;SDS011;6708;49.814;8.652;2022-12-07T08:55:33;6.47;;;5.93;;
13279;SDS011;6708;49.814;8.652;2022-12-07T08:58:07;6.13;;;5.63;;
13279;SDS011;6708;49.814;8.652;2022-12-07T09:00:36;6.03;;;5.53;;
13279;SDS011;6708;49.814;8.652;2022-12-07T09:03:04;6.10;;;5.70;;
13279;SDS011;6708;49.814;8.652;2022-12-07T09:05:33;7.07;;;6.40;;
13279;SDS011;6708;49.814;8.652;2022-12-07T09:08:03;6.53;;;6.03;;
13279;SDS011;6708;49.814;8.652;2022-12-07T09:10:35;6.67;;;6.07;;
13279;SDS011;6708;49.814;8.652;2022-12-07T09:13:06;6.20;;;5.60;;
13279;SDS011;6708;49.814;8.652;2022-12-07T09:15:38;6.50;;;5.90;;
13279;SDS011;6708;49.814;8.652;2022-12-07T09:18:09;6.03;;;5.57;;
13279;SDS011;6708;49.814;8.652;2022-12-07T09:20:40;6.53;;;6.03;;
13279;SDS011;6708;49.814;8.652;2022-12-07T09:23:08;6.57;;;6.07;;
13279;SDS011;6708;49.814;8.652;2022-12-07T09:25:38;6.60;;;6.00;;
13279;SDS011;6708;49.814;8.652;2022-12-07T09:28:09;6.70;;;6.20;;
13279;SDS011;6708;49.814;8.652;2022-12-07T09:30:37;6.60;;;6.03;;
13279;SDS011;6708;49.814;8.652;2022-12-07T09:33:06;6.57;;;5.97;;
13279;SDS011;6708;49.814;8.652;2022-12-07T09:35:34;6.77;;;6.17;;
13279;SDS011;6708;49.814;8.652;2022-12-07T09:38:04;6.27;;;5.83;;
13279;SDS011;6708;49.814;8.652;2022-12-07T09:40:35;6.30;;;5.90;;
13279;SDS011;6708;49.814;8.652;2022-12-07T09:43:04;7.37;;;6.33;;
13279;SDS011;6708;49.814;8.652;2022-12-07T09:45:36;6.90;;;6.30;;
13279;SDS011;6708;49.814;8.652;2022-12-07T09:48:05;6.13;;;5.63;;
13279;SDS011;6708;49.814;8.652;2022-12-07T09:50:39;7.30;;;6.60;;
13279;SDS011;6708;49.814;8.652;2022-12-07T09:53:08;7.00;;;6.30;;
13279;SDS011;6708;49.814;8.652;2022-12-07T09:55:38;6.17;;;5.77;;
13279;SDS011;6708;49.814;8.652;2022-12-07T09:58:09;7.63;;;6.33;;
13279;SDS011;6708;49.814;8.652;2022-12-07T10:00:49;6.73;;;5.50;;
13279;SDS011;6708;49.814;8.652;2022-12-07T10:03:18;6.30;;;5.80;;
13279;SDS011;6708;49.814;8.652;2022-12-07T10:05:47;6.67;;;6.10;;
13279;SDS011;6708;49.814;8.652;2022-12-07T10:08:19;6.10;;;5.60;;
13279;SDS011;6708;49.814;8.652;2022-12-07T10:10:49;6.47;;;5.93;;
13279;SDS011;6708;49.814;8.652;2022-12-07T10:13:20;6.53;;;5.70;;
13279;SDS011;6708;49.814;8.652;2022-12-07T10:15:53;6.93;;;6.33;;
13279;SDS011;6708;49.814;8.652;2022-12-07T10:18:28;6.70;;;6.10;;
13279;SDS011;6708;49.814;8.652;2022-12-07T10:21:02;6.70;;;6.07;;
13279;SDS011;6708;49.814;8.652;2022-12-07T10:23:33;6.87;;;6.27;;
13279;SDS011;6708;49.814;8.652;2022-12-07T10:28:48;6.73;;;6.13;;
13279;SDS011;6708;49.814;8.652;2022-12-07T10:31:20;7.27;;;6.77;;
13279;SDS011;6708;49.814;8.652;2022-12-07T10:33:50;6.80;;;6.33;;
13279;SDS011;6708;49.814;8.652;2022-12-07T10:36:22;7.00;;;6.50;;
13279;SDS011;6708;49.814;8.652;2022-12-07T10:38:53;7.33;;;5.67;;
13279;SDS011;6708;49.814;8.652;2022-12-07T10:41:29;6.33;;;5.67;;
13279;SDS011;6708;49.814;8.652;2022-12-07T10:44:00;6.63;;;5.57;;
13279;SDS011;6708;49.814;8.652;2022-12-07T10:46:40;6.23;;;5.63;;
13279;SDS011;6708;49.814;8.652;2022-12-07T10:52:34;7.40;;;6.80;;
13279;SDS011;6708;49.814;8.652;2022-12-07T10:55:14;7.07;;;5.70;;
13279;SDS011;6708;49.814;8.652;2022-12-07T10:57:54;6.30;;;5.80;;
13279;SDS011;6708;49.814;8.652;2022-12-07T11:00:37;6.63;;;5.93;;
13279;SDS011;6708;49.814;8.652;2022-12-07T11:03:21;6.43;;;5.93;;
13279;SDS011;6708;49.814;8.652;2022-12-07T11:05:54;6.30;;;5.80;;
13279;SDS011;6708;49.814;8.652;2022-12-07T11:08:39;7.83;;;7.17;;
13279;SDS011;6708;49.814;8.652;2022-12-07T11:11:14;7.30;;;6.20;;
13279;SDS011;6708;49.814;8.652;2022-12-07T11:13:48;7.00;;;6.40;;
13279;SDS011;6708;49.814;8.652;2022-12-07T11:16:24;6.63;;;6.13;;
13279;SDS011;6708;49.814;8.652;2022-12-07T11:19:11;6.10;;;5.60;;
13279;SDS011;6708;49.814;8.652;2022-12-07T11:21:51;6.10;;;5.50;;
13279;SDS011;6708;49.814;8.652;2022-12-07T11:24:27;6.73;;;6.13;;
13279;SDS011;6708;49.814;8.652;2022-12-07T11:27:07;5.87;;;5.47;;
13279;SDS011;6708;49.814;8.652;2022-12-07T11:29:43;6.27;;;5.73;;
13279;SDS011;6708;49.814;8.652;2022-12-07T11:32:45;6.50;;;5.87;;
13279;SDS011;6708;49.814;8.652;2022-12-07T11:35:26;6.70;;;6.10;;
13279;SDS011;6708;49.814;8.652;2022-12-07T11:38:01;6.63;;;6.03;;
13279;SDS011;6708;49.814;8.652;2022-12-07T11:40:35;7.00;;;6.40;;
13279;SDS011;6708;49.814;8.652;2022-12-07T11:43:07;5.57;;;5.17;;
13279;SDS011;6708;49.814;8.652;2022-12-07T11:45:44;6.03;;;5.17;;
13279;SDS011;6708;49.814;8.652;2022-12-07T11:48:20;6.77;;;5.33;;
13279;SDS011;6708;49.814;8.652;2022-12-07T11:50:56;6.47;;;5.87;;
13279;SDS011;6708;49.814;8.652;2022-12-07T11:53:26;6.97;;;6.37;;
13279;SDS011;6708;49.814;8.652;2022-12-07T11:55:57;8.13;;;5.80;;
13279;SDS011;6708;49.814;8.652;2022-12-07T11:58:46;5.83;;;5.33;;
13279;SDS011;6708;49.814;8.652;2022-12-07T12:01:30;5.60;;;5.20;;
13279;SDS011;6708;49.814;8.652;2022-12-07T12:04:05;5.93;;;5.53;;
13279;SDS011;6708;49.814;8.652;2022-12-07T12:06:43;5.77;;;5.27;;
13279;SDS011;6708;49.814;8.652;2022-12-07T12:09:12;5.87;;;5.27;;
13279;SDS011;6708;49.814;8.652;2022-12-07T12:11:55;6.10;;;5.50;;
13279;SDS011;6708;49.814;8.652;2022-12-07T12:14:35;6.00;;;5.40;;
13279;SDS011;6708;49.814;8.652;2022-12-07T12:20:15;6.33;;;5.73;;
13279;SDS011;6708;49.814;8.652;2022-12-07T12:22:51;6.20;;;5.60;;
13279;SDS011;6708;49.814;8.652;2022-12-07T12:25:23;8.20;;;5.23;;
13279;SDS011;6708;49.814;8.652;2022-12-07T12:27:57;5.77;;;5.27;;
13279;SDS011;6708;49.814;8.652;2022-12-07T12:30:31;5.60;;;5.20;;
13279;SDS011;6708;49.814;8.652;2022-12-07T12:33:03;5.53;;;5.07;;
13279;SDS011;6708;49.814;8.652;2022-12-07T12:35:34;6.10;;;5.60;;
13279;SDS011;6708;49.814;8.652;2022-12-07T12:41:00;6.30;;;5.33;;
13279;SDS011;6708;49.814;8.652;2022-12-07T12:55:42;5.30;;;4.80;;
13279;SDS011;6708;49.814;8.652;2022-12-07T12:58:38;4.37;;;4.07;;
13279;SDS011;6708;49.814;8.652;2022-12-07T13:04:23;4.87;;;4.33;;
13279;SDS011;6708;49.814;8.652;2022-12-07T13:06:54;7.33;;;4.83;;
13279;SDS011;6708;49.814;8.652;2022-12-07T13:09:24;4.70;;;4.30;;
13279;SDS011;6708;49.814;8.652;2022-12-07T13:12:00;4.53;;;4.20;;
13279;SDS011;6708;49.814;8.652;2022-12-07T13:23:14;2.90;;;2.70;;
13279;SDS011;6708;49.814;8.652;2022-12-07T13:25:48;2.40;;;2.30;;
13279;SDS011;6708;49.814;8.652;2022-12-07T13:28:23;3.93;;;2.73;;
13279;SDS011;6708;49.814;8.652;2022-12-07T13:31:09;2.33;;;2.23;;
13279;SDS011;6708;49.814;8.652;2022-12-07T13:33:43;2.50;;;2.30;;
13279;SDS011;6708;49.814;8.652;2022-12-07T13:36:18;2.40;;;2.20;;
13279;SDS011;6708;49.814;8.652;2022-12-07T13:38:52;2.20;;;2.00;;
13279;SDS011;6708;49.814;8.652;2022-12-07T13:41:23;2.17;;;2.07;;
13279;SDS011;6708;49.814;8.652;2022-12-07T13:43:59;3.87;;;3.20;;
13279;SDS011;6708;49.814;8.652;2022-12-07T13:46:32;3.93;;;3.63;;
13279;SDS011;6708;49.814;8.652;2022-12-07T13:49:12;4.70;;;4.37;;
13279;SDS011;6708;49.814;8.652;2022-12-07T13:51:44;5.17;;;4.63;;
13279;SDS011;6708;49.814;8.652;2022-12-07T13:54:13;4.20;;;3.80;;
13279;SDS011;6708;49.814;8.652;2022-12-07T13:56:42;3.83;;;3.47;;
13279;SDS011;6708;49.814;8.652;2022-12-07T13:59:18;3.27;;;3.07;;
13279;SDS011;6708;49.814;8.652;2022-12-07T14:01:48;5.97;;;3.13;;
13279;SDS011;6708;49.814;8.652;2022-12-07T14:04:24;2.40;;;2.20;;
13279;SDS011;6708;49.814;8.652;2022-12-07T14:06:59;3.10;;;2.80;;
13279;SDS011;6708;49.814;8.652;2022-12-07T14:09:52;2.50;;;2.40;;
13279;SDS011;6708;49.814;8.652;2022-12-07T14:12:23;3.60;;;2.93;;
13279;SDS011;6708;49.814;8.652;2022-12-07T14:14:59;3.10;;;2.87;;
13279;SDS011;6708;49.814;8.652;2022-12-07T14:17:29;2.90;;;2.30;;
13279;SDS011;6708;49.814;8.652;2022-12-07T14:19:59;2.23;;;2.13;;
13279;SDS011;6708;49.814;8.652;2022-12-07T14:22:53;2.33;;;2.13;;
13279;SDS011;6708;49.814;8.652;2022-12-07T14:25:23;2.73;;;1.90;;
13279;SDS011;6708;49.814;8.652;2022-12-07T14:27:53;2.93;;;1.50;;
13279;SDS011;6708;49.814;8.652;2022-12-07T14:30:29;1.83;;;1.73;;
13279;SDS011;6708;49.814;8.652;2022-12-07T14:32:59;1.80;;;1.70;;
13279;SDS011;6708;49.814;8.652;2022-12-07T14:35:28;2.90;;;1.47;;
13279;SDS011;6708;49.814;8.652;2022-12-07T14:37:57;3.17;;;1.40;;
13279;SDS011;6708;49.814;8.652;2022-12-07T14:40:30;2.43;;;1.80;;
13279;SDS011;6708;49.814;8.652;2022-12-07T14:43:01;7.30;;;1.93;;
13279;SDS011;6708;49.814;8.652;2022-12-07T14:45:34;2.17;;;1.40;;
13279;SDS011;6708;49.814;8.652;2022-12-07T14:48:04;6.10;;;1.80;;
13279;SDS011;6708;49.814;8.652;2022-12-07T14:50:38;2.57;;;1.43;;
13279;SDS011;6708;49.814;8.652;2022-12-07T14:53:10;2.63;;;1.77;;
13279;SDS011;6708;49.814;8.652;2022-12-07T14:55:43;1.30;;;1.30;;
13279;SDS011;6708;49.814;8.652;2022-12-07T14:58:13;1.50;;;1.40;;
13279;SDS011;6708;49.814;8.652;2022-12-07T15:00:44;2.83;;;1.50;;
13279;SDS011;6708;49.814;8.652;2022-12-07T15:03:15;1.57;;;1.20;;
13279;SDS011;6708;49.814;8.652;2022-12-07T15:05:44;2.40;;;1.30;;
13279;SDS011;6708;49.814;8.652;2022-12-07T15:08:12;1.70;;;1.50;;
13279;SDS011;6708;49.814;8.652;2022-12-07T15:10:42;2.47;;;1.33;;
13279;SDS011;6708;49.814;8.652;2022-12-07T15:13:15;2.33;;;1.20;;
13279;SDS011;6708;49.814;8.652;2022-12-07T15:15:59;1.37;;;1.10;;
13279;SDS011;6708;49.814;8.652;2022-12-07T15:18:28;4.00;;;1.40;;
13279;SDS011;6708;49.814;8.652;2022-12-07T15:20:57;1.60;;;1.50;;
13279;SDS011;6708;49.814;8.652;2022-12-07T15:23:25;1.40;;;1.20;;
13279;SDS011;6708;49.814;8.652;2022-12-07T15:25:56;11.43;;;1.87;;
13279;SDS011;6708;49.814;8.652;2022-12-07T15:28:25;1.27;;;1.20;;
13279;SDS011;6708;49.814;8.652;2022-12-07T15:30:55;1.60;;;1.50;;
13279;SDS011;6708;49.814;8.652;2022-12-07T15:33:31;1.63;;;1.53;;
13279;SDS011;6708;49.814;8.652;2022-12-07T15:36:02;1.83;;;1.73;;
13279;SDS011;6708;49.814;8.652;2022-12-07T15:38:31;2.70;;;1.53;;
13279;SDS011;6708;49.814;8.652;2022-12-07T15:40:59;3.83;;;2.00;;
13279;SDS011;6708;49.814;8.652;2022-12-07T15:43:39;1.90;;;1.73;;
13279;SDS011;6708;49.814;8.652;2022-12-07T15:46:21;2.93;;;1.97;;
13279;SDS011;6708;49.814;8.652;2022-12-07T15:48:52;2.00;;;1.90;;
13279;SDS011;6708;49.814;8.652;2022-12-07T15:51:21;2.70;;;2.00;;
13279;SDS011;6708;49.814;8.652;2022-12-07T15:53:50;2.10;;;1.97;;
13279;SDS011;6708;49.814;8.652;2022-12-07T15:56:20;2.70;;;2.30;;
13279;SDS011;6708;49.814;8.652;2022-12-07T15:58:49;4.10;;;2.80;;
13279;SDS011;6708;49.814;8.652;2022-12-07T16:01:18;2.87;;;2.67;;
13279;SDS011;6708;49.814;8.652;2022-12-07T16:03:47;2.80;;;2.60;;
13279;SDS011;6708;49.814;8.652;2022-12-07T16:06:18;2.80;;;2.60;;
13279;SDS011;6708;49.814;8.652;2022-12-07T16:08:47;4.90;;;2.80;;